Terminal Aerodrome Forecast
Issued by NWS Quad Cities IA IL

Home | Current Version | Previous Version | Text Only | Print | Product List | Glossary On
Versions: 1 2 3 4 5 6 7 8 9 10 11 12 13 14 15
000
FTUS43 KDVN 050520
TAFMLI
TAF
KMLI 050520Z 0506/0606 20003KT P6SM SCT250
     FM050900 VRB02KT 6SM BR SKC
     FM051400 17008KT P6SM SKC=

USA.gov is the U.S. government's official web portal to all federal, state and local government web resources and services.